Time;durP1;ratioP1;P1;durP2;ratioP2;P2;SDS_P1;SDS_P2;PMS_P1;PMS_P2;Temp;Humidity;BMP_temperature;BMP_pressure;BME280_temperature;BME280_humidity;BME280_pressure;Samples;Min_cycle;Max_cycle;Signal;HPM_P1;HPM_P2
2021/11/12 00:13:24;;;;;;;33.10;16.67;;;;;;;11.81;60.03;102212.47;4996576;28;124748;-64
2021/11/12 00:15:56;;;;;;;40.50;16.90;;;;;;;11.79;59.98;102216.97;5001500;28;123733;-65
2021/11/12 00:18:26;;;;;;;34.58;16.63;;;;;;;11.76;59.97;102217.03;4998807;28;114798;-65
2021/11/12 00:20:56;;;;;;;34.58;17.88;;;;;;;11.76;60.07;102210.84;4994873;28;114511;-64
2021/11/12 00:23:26;;;;;;;38.70;17.90;;;;;;;11.74;60.16;102202.94;4998770;28;124282;-64
2021/11/12 00:25:53;;;;;;;35.35;16.90;;;;;;;11.75;60.15;102204.66;4999350;28;124209;-65
2021/11/12 00:28:24;;;;;;;37.92;17.10;;;;;;;11.73;59.90;102201.19;5007635;28;114172;-65
2021/11/12 00:31:03;;;;;;;37.25;17.08;;;;;;;11.73;59.94;102197.66;5001461;28;114402;-65
2021/11/12 00:38:57;;;;;;;33.55;17.33;;;;;;;11.65;60.42;102184.59;5002068;28;115039;-64
2021/11/12 00:41:41;;;;;;;34.47;16.58;;;;;;;11.63;60.07;102183.78;4997891;28;114384;-65
2021/11/12 00:44:30;;;;;;;37.25;17.27;;;;;;;11.60;60.20;102183.84;5001838;28;123904;-65
2021/11/12 00:47:03;;;;;;;37.97;16.73;;;;;;;11.58;60.16;102183.03;4997072;28;124340;-64
2021/11/12 00:49:35;;;;;;;41.00;18.52;;;;;;;11.55;60.18;102185.78;5001821;28;115227;-65
2021/11/12 00:52:08;;;;;;;40.25;17.10;;;;;;;11.53;60.06;102176.97;5004954;28;115030;-64
2021/11/12 00:54:36;;;;;;;35.83;17.88;;;;;;;11.50;60.29;102172.63;5000328;28;124941;-65
2021/11/12 00:57:04;;;;;;;39.45;17.35;;;;;;;11.49;60.22;102171.78;4986992;28;123932;-65
2021/11/12 00:59:31;;;;;;;37.00;17.20;;;;;;;11.48;59.99;102170.03;4999668;28;114220;-65
2021/11/12 01:01:59;;;;;;;43.17;18.00;;;;;;;11.46;60.18;102171.84;5006259;28;115766;-65
2021/11/12 01:04:26;;;;;;;31.85;16.80;;;;;;;11.44;60.22;102173.66;4986604;28;122940;-65
2021/11/12 01:06:53;;;;;;;34.22;16.73;;;;;;;11.43;59.91;102171.06;5003348;28;123744;-64
2021/11/12 01:09:22;;;;;;;34.42;17.35;;;;;;;11.40;60.16;102166.72;5004937;28;114136;-65
2021/11/12 01:11:50;;;;;;;39.70;17.90;;;;;;;11.36;60.38;102165.06;4999997;28;113873;-64
2021/11/12 01:14:22;;;;;;;41.15;17.83;;;;;;;11.33;60.01;102156.31;5004176;28;124769;-69
2021/11/12 01:16:49;;;;;;;38.47;18.05;;;;;;;11.30;60.24;102154.59;4997686;28;123850;-65
2021/11/12 01:19:17;;;;;;;39.65;18.23;;;;;;;11.26;60.08;102148.53;4995869;28;114463;-65
2021/11/12 01:21:46;;;;;;;34.83;17.38;;;;;;;11.25;60.38;102151.22;4984708;28;114033;-65
2021/11/12 01:24:13;;;;;;;42.63;17.80;;;;;;;11.21;60.38;102149.56;5006070;28;124087;-65
2021/11/12 01:26:42;;;;;;;39.20;18.15;;;;;;;11.18;60.38;102144.34;4989695;28;123522;-65
2021/11/12 01:29:09;;;;;;;40.40;17.45;;;;;;;11.17;60.39;102142.56;5004551;28;114803;-65
2021/11/12 01:31:36;;;;;;;41.42;18.38;;;;;;;11.15;60.09;102139.09;5006301;28;114682;-65
2021/11/12 01:34:08;;;;;;;42.30;17.75;;;;;;;11.13;60.30;102140.94;4994817;28;124057;-64
2021/11/12 01:36:45;;;;;;;38.97;17.55;;;;;;;11.09;60.15;102141.03;4998551;28;125418;-67
2021/11/12 01:39:18;;;;;;;43.45;19.15;;;;;;;11.04;60.14;102137.63;5000738;28;116129;-67
2021/11/12 01:41:49;;;;;;;35.42;16.85;;;;;;;11.03;60.12;102140.31;4980496;28;115362;-67
2021/11/12 01:44:27;;;;;;;37.03;17.23;;;;;;;11.02;60.36;102134.13;4984607;28;123580;-67
2021/11/12 01:47:09;;;;;;;41.03;18.25;;;;;;;11.00;60.52;102138.63;4981543;28;123804;-68
2021/11/12 01:49:40;;;;;;;39.47;17.88;;;;;;;10.98;60.05;102132.50;4997369;28;115092;-67
2021/11/12 01:52:14;;;;;;;46.83;17.60;;;;;;;10.97;60.28;102130.72;4994020;28;113858;-67
2021/11/12 01:54:56;;;;;;;42.08;17.52;;;;;;;10.96;59.99;102131.63;4993165;28;123972;-67
2021/11/12 01:57:37;;;;;;;37.80;18.15;;;;;;;10.92;60.50;102135.28;4997464;28;123861;-67
2021/11/12 02:00:13;;;;;;;39.13;18.65;;;;;;;10.91;60.26;102130.91;5004915;28;114781;-67
2021/11/12 02:02:41;;;;;;;39.55;17.73;;;;;;;10.90;60.39;102124.69;4996945;28;114278;-67
2021/11/12 02:05:09;;;;;;;41.00;19.05;;;;;;;10.88;60.42;102120.34;4984603;28;122934;-67
2021/11/12 02:07:38;;;;;;;35.35;16.92;;;;;;;10.86;60.25;102119.53;5000715;28;124249;-67
2021/11/12 02:10:19;;;;;;;36.63;18.05;;;;;;;10.85;60.57;102120.44;5000998;28;113833;-68
2021/11/12 02:12:57;;;;;;;38.47;18.48;;;;;;;10.83;60.43;102106.34;4997262;28;113950;-67
2021/11/12 02:15:26;;;;;;;36.00;18.40;;;;;;;10.80;60.21;102101.16;4981312;28;124117;-67
2021/11/12 02:18:00;;;;;;;43.67;19.10;;;;;;;10.76;60.32;102095.06;4996878;28;123832;-67
2021/11/12 02:20:42;;;;;;;42.55;18.88;;;;;;;10.73;60.14;102094.25;4985407;28;114950;-67
2021/11/12 02:23:10;;;;;;;42.70;18.00;;;;;;;10.68;60.36;102079.34;4986546;28;115977;-68
2021/11/12 02:25:40;;;;;;;42.47;18.60;;;;;;;10.65;60.30;102076.78;5000525;28;124027;-68
2021/11/12 02:30:37;;;;;;;38.90;18.17;;;;;;;10.59;59.95;102082.22;5001246;28;116540;-68
2021/11/12 02:33:05;;;;;;;42.03;17.80;;;;;;;10.56;60.37;102071.69;5004827;28;115026;-67
2021/11/12 02:35:35;;;;;;;45.67;18.65;;;;;;;10.53;60.16;102066.50;4993060;28;124388;-67
2021/11/12 02:38:04;;;;;;;37.83;17.77;;;;;;;10.49;60.25;102070.13;4997505;28;123749;-67
2021/11/12 02:40:33;;;;;;;40.60;18.73;;;;;;;10.46;60.09;102059.63;4999646;28;117295;-67
2021/11/12 02:43:01;;;;;;;41.83;18.50;;;;;;;10.41;59.94;102064.16;4997651;28;114059;-67
2021/11/12 02:45:29;;;;;;;37.47;17.88;;;;;;;10.36;60.16;102063.38;4996638;28;123994;-67
2021/11/12 02:47:56;;;;;;;41.63;18.02;;;;;;;10.32;60.09;102079.38;4994365;28;124014;-67
2021/11/12 02:50:24;;;;;;;40.85;17.88;;;;;;;10.27;60.03;102069.75;5000135;28;114345;-67
2021/11/12 02:53:01;;;;;;;42.00;18.15;;;;;;;10.22;60.00;102077.78;4984852;28;113135;-68
2021/11/12 02:55:28;;;;;;;40.55;17.55;;;;;;;10.17;59.92;102084.09;4984548;28;123906;-68
2021/11/12 02:57:56;;;;;;;37.45;17.58;;;;;;;10.11;59.72;102085.13;5006642;28;123833;-68
2021/11/12 03:00:25;;;;;;;43.47;17.45;;;;;;;10.03;59.55;102076.50;4991762;28;114989;-68
2021/11/12 03:02:52;;;;;;;42.83;18.40;;;;;;;9.97;59.86;102081.94;5001003;28;114191;-68
2021/11/12 03:05:20;;;;;;;36.70;17.33;;;;;;;9.89;59.75;102075.03;4993236;28;124331;-68
2021/11/12 03:07:47;;;;;;;39.60;17.80;;;;;;;9.85;59.84;102075.13;4981979;28;123120;-68
2021/11/12 03:10:15;;;;;;;42.95;18.95;;;;;;;9.79;59.69;102078.75;4998812;28;114746;-68
2021/11/12 03:12:45;;;;;;;38.97;17.65;;;;;;;9.74;59.81;102080.66;5000500;28;114348;-68
2021/11/12 03:15:12;;;;;;;48.28;20.05;;;;;;;9.68;59.82;102075.47;5001804;28;124130;-67
2021/11/12 03:17:40;;;;;;;42.20;18.48;;;;;;;9.63;60.17;102072.09;4991514;28;124161;-68
2021/11/12 03:20:11;;;;;;;39.42;19.13;;;;;;;9.58;60.24;102058.09;4994226;28;115950;-67
2021/11/12 03:22:46;;;;;;;39.55;19.00;;;;;;;9.52;59.78;102054.66;4980448;28;115029;-67
2021/11/12 03:25:26;;;;;;;43.60;19.00;;;;;;;9.49;60.26;102065.31;5002694;28;123844;-67
2021/11/12 03:49:46;;;;;;;41.33;18.00;;;;;;;9.05;60.18;102035.34;4994480;28;124064;-68
2021/11/12 04:00:54;;;;;;;37.47;17.50;;;;;;;8.83;60.39;102031.38;5001777;28;124292;-67
2021/11/12 04:30:33;;;;;;;36.25;16.80;;;;;;;8.43;60.37;102021.53;4999690;28;124746;-68
2021/11/12 04:41:48;;;;;;;;;;;;;;;8.11;60.22;101988.59;4994393;28;124839;-68
2021/11/12 05:44:45;;;;;;;27.40;13.70;;;;;;;7.10;60.61;101839.00;4995494;28;113672;-71
2021/11/12 05:49:57;;;;;;;30.65;13.93;;;;;;;7.05;60.57;101840.81;4993156;28;124987;-71
2021/11/12 05:55:10;;;;;;;28.42;14.20;;;;;;;7.00;60.75;101853.16;4993038;28;113988;-71
2021/11/12 05:57:38;;;;;;;29.30;14.05;;;;;;;6.99;60.37;101856.72;4977484;28;123237;-71
2021/11/12 06:00:09;;;;;;;29.73;13.77;;;;;;;6.99;60.29;101856.72;4973498;28;122856;-71
2021/11/12 06:02:37;;;;;;;29.80;14.07;;;;;;;6.98;60.50;101857.59;4998354;28;114866;-71
2021/11/12 06:05:05;;;;;;;34.30;14.50;;;;;;;6.97;60.29;101863.75;4994420;28;115190;-71
2021/11/12 06:07:32;;;;;;;29.00;14.02;;;;;;;6.94;60.33;101863.78;4990977;28;123889;-71
2021/11/12 06:09:59;;;;;;;30.90;14.13;;;;;;;6.92;60.28;101857.69;4962602;28;123833;-71
2021/11/12 06:12:29;;;;;;;30.67;14.63;;;;;;;6.90;60.16;101862.09;4965067;28;113218;-71
2021/11/12 06:14:58;;;;;;;31.65;14.40;;;;;;;6.89;60.64;101876.13;4997452;28;114452;-71
2021/11/12 06:17:25;;;;;;;25.27;13.00;;;;;;;6.88;60.50;101887.59;4973448;28;123822;-71
2021/11/12 06:19:53;;;;;;;31.77;13.45;;;;;;;6.87;60.26;101885.81;4974214;28;123803;-71
2021/11/12 06:22:20;;;;;;;25.77;14.30;;;;;;;6.88;60.70;101884.94;4990942;28;114096;-71
2021/11/12 06:24:47;;;;;;;28.88;13.50;;;;;;;6.87;60.26;101867.41;4991200;28;114058;-71
2021/11/12 06:27:14;;;;;;;29.33;14.20;;;;;;;6.86;60.38;101870.94;4997301;28;124734;-71
2021/11/12 06:29:42;;;;;;;29.38;13.18;;;;;;;6.82;60.34;101865.69;4993851;28;123342;-71
2021/11/12 06:32:11;;;;;;;30.40;14.27;;;;;;;6.81;60.16;101869.22;4980398;28;112380;-71
2021/11/12 06:34:39;;;;;;;26.38;14.00;;;;;;;6.76;60.28;101855.25;4995189;28;114078;-71
2021/11/12 06:37:06;;;;;;;27.58;13.85;;;;;;;6.72;60.00;101853.53;4989787;28;124053;-71
2021/11/12 06:39:33;;;;;;;30.42;13.32;;;;;;;6.68;60.30;101867.63;4973951;28;122732;-71
2021/11/12 06:42:12;;;;;;;27.52;13.88;;;;;;;6.65;60.01;101875.56;4994742;28;114223;-71
2021/11/12 06:52:33;;;;;;;27.80;14.05;;;;;;;6.54;60.19;101880.09;4993129;28;115321;-71
2021/11/12 06:55:03;;;;;;;29.75;13.18;;;;;;;6.51;60.34;101880.97;4999908;28;115429;-71
2021/11/12 06:57:30;;;;;;;29.35;13.73;;;;;;;6.47;60.49;101884.53;4979397;28;124987;-70
2021/11/12 06:59:57;;;;;;;24.95;12.65;;;;;;;6.46;60.42;101877.56;5000880;28;124649;-71
2021/11/12 07:02:25;;;;;;;26.45;13.50;;;;;;;6.45;60.30;101869.66;4986937;28;115185;-71
2021/11/12 07:04:52;;;;;;;29.92;13.65;;;;;;;6.42;60.48;101881.97;5005424;28;114060;-71
2021/11/12 07:07:19;;;;;;;28.48;13.20;;;;;;;6.41;60.38;101885.47;4990593;28;123863;-72
2021/11/12 07:09:47;;;;;;;29.63;13.93;;;;;;;6.39;60.39;101876.75;5007567;28;123826;-71
2021/11/12 07:12:15;;;;;;;26.95;13.68;;;;;;;6.37;60.50;101868.00;4997640;28;114777;-71
2021/11/12 07:14:43;;;;;;;27.60;13.77;;;;;;;6.33;60.41;101868.91;4989916;28;114059;-71
2021/11/12 07:17:12;;;;;;;29.08;13.82;;;;;;;6.30;60.29;101882.09;4986540;28;123762;-71
2021/11/12 07:19:39;;;;;;;29.40;13.50;;;;;;;6.28;60.31;101878.63;5000163;28;124014;-72
2021/11/12 07:22:07;;;;;;;29.75;13.40;;;;;;;6.27;60.21;101882.13;5007619;28;114147;-72
2021/11/12 07:24:35;;;;;;;27.30;14.43;;;;;;;6.25;60.55;101862.84;5004481;28;114763;-72
2021/11/12 07:27:02;;;;;;;32.58;14.23;;;;;;;6.24;60.27;101861.97;4989361;28;123759;-72
2021/11/12 07:29:31;;;;;;;25.23;13.13;;;;;;;6.22;60.21;101857.63;5001394;28;123196;-71
2021/11/12 07:31:58;;;;;;;29.38;13.48;;;;;;;6.20;60.38;101859.41;5022645;28;114003;-72
2021/11/12 07:34:28;;;;;;;34.38;13.80;;;;;;;6.18;60.59;101866.47;4981657;28;112842;-72
2021/11/12 07:37:05;;;;;;;29.10;13.93;;;;;;;6.18;60.70;101876.97;4982168;28;123466;-72
2021/11/12 07:47:20;;;;;;;26.00;12.40;;;;;;;6.12;60.53;101845.44;4974302;28;123106;-72
2021/11/12 07:49:56;;;;;;;27.08;12.77;;;;;;;6.10;60.61;101842.84;4992612;28;123016;-72
2021/11/12 07:52:28;;;;;;;28.92;13.05;;;;;;;6.10;60.56;101847.22;4996202;28;112339;-72
2021/11/12 07:54:58;;;;;;;28.15;13.32;;;;;;;6.11;60.72;101843.72;5009949;28;112129;-72
2021/11/12 07:57:28;;;;;;;29.17;12.07;;;;;;;6.12;60.80;101837.56;4995378;28;123761;-72
2021/11/12 07:59:58;;;;;;;25.92;12.20;;;;;;;6.12;60.59;101824.41;5000514;28;122827;-72
2021/11/12 08:02:27;;;;;;;28.20;12.00;;;;;;;6.13;60.47;101820.91;5013474;28;114285;-73
2021/11/12 08:05:01;;;;;;;32.15;13.27;;;;;;;6.11;60.69;101810.41;5008860;28;112430;-72
2021/11/12 08:07:32;;;;;;;29.40;12.65;;;;;;;6.12;60.85;101808.63;5001167;28;123471;-72
2021/11/12 08:10:03;;;;;;;27.52;12.35;;;;;;;6.15;60.91;101819.13;5012651;28;122110;-72
2021/11/12 08:12:42;;;;;;;28.35;12.10;;;;;;;6.17;60.80;101812.09;4999211;28;114453;-70
2021/11/12 08:20:41;;;;;;;27.45;12.70;;;;;;;6.22;60.72;101815.56;4952901;28;124228;-73
2021/11/12 08:24:16;;;;;;;27.98;13.20;;;;;;;6.25;60.90;101815.50;4974118;28;113468;-73
2021/11/12 08:29:11;;;;;;;28.92;12.35;;;;;;;6.34;61.06;101820.66;4974779;28;122946;-73
2021/11/12 08:41:56;;;;;;;32.50;14.05;;;;;;;6.50;60.91;101804.69;4991248;28;124201;-73
2021/11/12 08:47:08;;;;;;;37.17;14.52;;;;;;;6.55;60.98;101802.88;4997695;28;114202;-73
2021/11/12 08:49:38;;;;;;;31.92;13.77;;;;;;;6.58;60.67;101802.84;4995843;28;123848;-72
2021/11/12 08:52:09;;;;;;;32.28;14.25;;;;;;;6.59;60.87;101791.41;4999909;28;124600;-71
2021/11/12 08:54:38;;;;;;;33.08;13.52;;;;;;;6.60;61.06;101780.00;4993511;28;114271;-72
2021/11/12 08:57:11;;;;;;;30.10;13.43;;;;;;;6.61;61.03;101777.34;4978991;28;115085;-73
2021/11/12 08:59:39;;;;;;;34.58;13.98;;;;;;;6.64;60.79;101781.69;4984501;28;124048;-72
2021/11/12 09:02:08;;;;;;;36.30;13.88;;;;;;;6.67;61.30;101776.41;4998206;28;123843;-73
2021/11/12 09:04:37;;;;;;;36.38;14.68;;;;;;;6.69;61.22;101774.59;5012719;28;114963;-73
2021/11/12 09:07:05;;;;;;;34.00;14.55;;;;;;;6.73;61.05;101776.31;5012398;28;114557;-73
2021/11/12 09:09:32;;;;;;;36.03;14.30;;;;;;;6.74;60.72;101772.78;5011481;28;123969;-72
2021/11/12 09:11:59;;;;;;;35.95;14.02;;;;;;;6.74;61.03;101778.06;5011693;28;123766;-73
2021/11/12 09:14:28;;;;;;;32.80;14.60;;;;;;;6.72;60.69;101774.53;5011725;28;114948;-73
2021/11/12 09:17:03;;;;;;;33.03;13.82;;;;;;;6.73;60.57;101773.66;4996359;28;113216;-73
2021/11/12 09:19:31;;;;;;;33.47;14.60;;;;;;;6.74;60.71;101771.91;5010613;28;123934;-73
2021/11/12 09:21:59;;;;;;;33.80;13.55;;;;;;;6.74;61.05;101764.88;5012224;28;123669;-73
2021/11/12 09:24:26;;;;;;;35.88;14.25;;;;;;;6.80;61.05;101762.16;5011269;28;114314;-73
2021/11/12 09:26:53;;;;;;;33.47;14.63;;;;;;;6.85;61.21;101763.84;5006604;28;115463;-73
2021/11/12 09:29:21;;;;;;;36.65;15.07;;;;;;;6.90;61.19;101767.31;4991408;28;125341;-73
2021/11/12 09:31:48;;;;;;;37.92;15.15;;;;;;;6.95;61.13;101760.19;4986272;28;123767;-73
2021/11/12 09:34:15;;;;;;;36.95;15.05;;;;;;;7.03;61.23;101753.03;4998399;28;114128;-73
2021/11/12 09:36:42;;;;;;;41.53;15.02;;;;;;;7.08;61.00;101751.19;5012760;28;113103;-73
2021/11/12 09:39:09;;;;;;;37.63;14.85;;;;;;;7.12;61.21;101760.81;4991441;28;123345;-73
2021/11/12 09:41:37;;;;;;;37.40;15.50;;;;;;;7.16;61.04;101754.59;4973953;28;123106;-73
2021/11/12 09:44:05;;;;;;;35.08;14.65;;;;;;;7.21;61.07;101742.22;4992817;28;114586;-72
2021/11/12 09:46:33;;;;;;;34.53;14.73;;;;;;;7.25;61.21;101747.41;4992072;28;113976;-72
2021/11/12 09:49:03;;;;;;;29.55;14.13;;;;;;;7.28;60.81;101731.56;5008424;28;123731;-72
2021/11/12 09:51:31;;;;;;;32.85;14.27;;;;;;;7.28;60.81;101714.00;5002401;28;123245;-73
2021/11/12 09:53:58;;;;;;;29.73;14.07;;;;;;;7.31;61.04;101715.69;4984082;28;113762;-73
2021/11/12 09:56:32;;;;;;;31.25;13.65;;;;;;;7.34;61.05;101715.66;5012378;28;114071;-73
2021/11/12 09:59:01;;;;;;;33.03;14.20;;;;;;;7.33;60.81;101703.38;4991701;28;122777;-73
2021/11/12 10:01:33;;;;;;;29.67;13.15;;;;;;;7.33;61.05;101703.38;5010003;28;123502;-72
2021/11/12 10:04:05;;;;;;;30.15;14.10;;;;;;;7.35;60.74;101701.59;5005137;28;114524;-73
2021/11/12 10:06:35;;;;;;;32.30;14.27;;;;;;;7.37;61.06;101716.47;4978391;28;113592;-73
2021/11/12 10:09:11;;;;;;;34.63;14.75;;;;;;;7.46;60.97;101733.88;5006624;28;123001;-73
2021/11/12 10:11:47;;;;;;;33.45;14.55;;;;;;;7.51;60.95;101734.66;5002137;28;123930;-73
2021/11/12 10:17:19;;;;;;;33.75;15.52;;;;;;;7.62;60.97;101715.16;4996892;28;114186;-71
2021/11/12 10:19:52;;;;;;;33.95;15.02;;;;;;;7.67;61.31;101716.81;5025762;28;124442;-73
2021/11/12 10:22:29;;;;;;;31.35;14.68;;;;;;;7.73;61.44;101713.19;4992971;28;124620;-73
2021/11/12 10:24:56;;;;;;;30.98;14.02;;;;;;;7.81;61.66;101716.53;5013067;28;114629;-73
2021/11/12 10:27:29;;;;;;;33.63;14.63;;;;;;;7.88;61.42;101707.59;4995099;28;114013;-73
2021/11/12 10:29:59;;;;;;;37.63;15.07;;;;;;;7.94;61.13;101686.38;4994663;28;123703;-73
2021/11/12 10:32:29;;;;;;;36.00;15.43;;;;;;;7.97;61.14;101691.59;5013461;28;124552;-73
2021/11/12 10:35:03;;;;;;;33.97;15.45;;;;;;;8.02;60.98;101693.25;5001234;28;114421;-72
2021/11/12 10:37:33;;;;;;;34.10;14.93;;;;;;;8.04;60.79;101697.59;4995230;28;114196;-73
2021/11/12 10:40:04;;;;;;;31.58;14.82;;;;;;;8.06;61.25;101689.66;4994366;28;124764;-73
2021/11/12 10:42:35;;;;;;;34.17;14.85;;;;;;;8.12;60.96;101694.81;5006237;28;123541;-73
2021/11/12 10:45:09;;;;;;;32.50;14.90;;;;;;;8.17;61.36;101683.28;5009384;28;113200;-73
2021/11/12 10:47:48;;;;;;;35.72;16.48;;;;;;;8.28;61.69;101680.38;5017930;28;114756;-74
2021/11/12 10:50:17;;;;;;;35.28;15.60;;;;;;;8.43;61.58;101659.88;5018592;28;123056;-74
2021/11/12 10:52:45;;;;;;;32.10;14.68;;;;;;;8.54;61.41;101655.19;5017292;28;123602;-73
2021/11/12 10:55:23;;;;;;;31.13;14.77;;;;;;;8.61;61.35;101646.25;5013550;28;114071;-72
2021/11/12 10:57:59;;;;;;;31.80;14.90;;;;;;;8.67;61.34;101643.44;5019541;28;113393;-71
2021/11/12 11:00:28;;;;;;;;;;;;;;;8.73;60.94;101635.34;5012080;28;124705;-72
2021/11/12 11:02:57;;;;;;;28.58;14.27;;;;;;;8.81;60.86;101635.16;5008232;28;123849;-72
2021/11/12 11:05:27;;;;;;;34.58;15.63;;;;;;;8.87;60.95;101620.94;4996666;28;112901;-72
2021/11/12 11:08:07;;;;;;;32.13;15.45;;;;;;;8.94;61.03;101614.59;5010701;28;116355;-73
2021/11/12 11:10:35;;;;;;;30.38;15.85;;;;;;;9.06;61.26;101634.53;4980581;28;123236;-72
2021/11/12 11:13:10;;;;;;;33.08;15.98;;;;;;;9.19;61.21;101632.44;5002824;28;125735;-72
2021/11/12 11:15:44;;;;;;;33.28;15.63;;;;;;;9.31;61.15;101634.78;5004016;28;114388;-72
2021/11/12 11:18:28;;;;;;;32.65;15.60;;;;;;;9.43;60.97;101626.50;5003319;28;113074;-72
2021/11/12 11:21:27;;;;;;;30.17;14.93;;;;;;;9.53;60.88;101633.28;4986668;28;124322;-74
2021/11/12 11:24:07;;;;;;;31.50;14.95;;;;;;;9.59;60.45;101615.47;4981511;28;121847;-71
2021/11/12 11:26:37;;;;;;;31.88;15.32;;;;;;;9.64;60.65;101618.88;5008492;28;114113;-72
2021/11/12 11:29:06;;;;;;;34.95;15.73;;;;;;;9.69;60.48;101611.69;5011126;28;113849;-72
2021/11/12 11:31:34;;;;;;;29.52;14.65;;;;;;;9.76;60.37;101613.25;5010037;28;124171;-72
2021/11/12 11:34:03;;;;;;;32.97;14.80;;;;;;;9.84;60.46;101600.66;5010424;28;123982;-72
2021/11/12 11:36:34;;;;;;;34.47;16.35;;;;;;;9.93;60.29;101581.84;5011261;28;114212;-72
2021/11/12 11:39:06;;;;;;;30.95;15.43;;;;;;;10.03;60.29;101578.91;4996653;28;114365;-72
2021/11/12 11:41:34;;;;;;;32.95;16.05;;;;;;;10.13;60.24;101585.66;4992498;28;122157;-72
2021/11/12 11:44:01;;;;;;;39.10;17.80;;;;;;;10.24;60.38;101570.28;4996574;28;123609;-72
2021/11/12 11:46:35;;;;;;;32.63;17.15;;;;;;;10.37;60.21;101581.41;4992749;28;113828;-72
2021/11/12 11:49:09;;;;;;;32.27;16.10;;;;;;;10.49;60.37;101578.38;5007567;28;114287;-72
2021/11/12 11:51:46;;;;;;;32.67;16.00;;;;;;;10.55;59.91;101561.41;5001939;28;123920;-72
2021/11/12 11:54:14;;;;;;;36.42;17.42;;;;;;;10.57;59.70;101559.56;4983719;28;123708;-72
2021/11/12 11:56:43;;;;;;;36.25;17.33;;;;;;;10.59;59.68;101555.06;5003654;28;114934;-72
2021/11/12 11:59:24;;;;;;;34.60;16.70;;;;;;;10.63;59.68;101554.06;4987631;28;114234;-73
2021/11/12 12:02:09;;;;;;;35.60;17.55;;;;;;;10.71;60.14;101549.34;4992662;28;124590;-72
2021/11/12 12:04:49;;;;;;;32.78;16.40;;;;;;;10.81;59.55;101535.78;4990622;28;124079;-72
2021/11/12 12:07:22;;;;;;;36.65;18.58;;;;;;;10.89;59.80;101539.06;4997982;28;114380;-72
2021/11/12 12:10:14;;;;;;;33.05;16.52;;;;;;;10.94;59.45;101547.69;5006092;28;113762;-72
2021/11/12 12:12:43;;;;;;;29.70;16.15;;;;;;;11.00;59.74;101536.88;5004994;28;124235;-72
2021/11/12 12:15:12;;;;;;;34.80;16.77;;;;;;;11.10;59.71;101532.97;5008751;28;123892;-73
2021/11/12 12:17:49;;;;;;;33.60;17.60;;;;;;;11.17;59.54;101524.78;4995938;28;114212;-72
2021/11/12 12:20:31;;;;;;;34.15;17.35;;;;;;;11.22;59.46;101520.19;4997647;28;113991;-73
2021/11/12 13:22:54;;;;;;;26.95;14.90;;;;;;;12.08;58.03;101439.91;5005298;28;123399;-72
2021/11/12 13:25:33;;;;;;;30.00;16.35;;;;;;;12.09;57.93;101436.31;5007185;28;114113;-73
2021/11/12 13:28:17;;;;;;;30.25;15.75;;;;;;;12.09;57.94;101438.97;4995567;28;113187;-72
2021/11/12 13:30:59;;;;;;;25.95;14.40;;;;;;;12.11;58.06;101431.81;5002041;28;123930;-72
2021/11/12 13:34:05;;;;;;;28.17;15.45;;;;;;;12.11;58.06;101426.50;5011264;28;123908;-72
2021/11/12 13:36:45;;;;;;;30.15;15.98;;;;;;;12.13;58.02;101418.47;4998291;28;115003;-71
2021/11/12 13:39:19;;;;;;;26.02;14.60;;;;;;;12.11;57.66;101415.91;4977541;28;113693;-72
2021/11/12 13:41:54;;;;;;;30.50;15.15;;;;;;;12.11;57.96;101415.91;5006679;28;124010;-72
2021/11/12 13:44:23;;;;;;;30.60;15.88;;;;;;;12.12;57.90;101412.28;4989682;28;123903;-73
2021/11/12 13:47:04;;;;;;;31.60;16.42;;;;;;;12.15;58.01;101400.66;4999384;28;114643;-72
2021/11/12 13:49:42;;;;;;;29.30;15.13;;;;;;;12.17;57.90;101405.00;5008447;28;115005;-72
2021/11/12 13:52:14;;;;;;;29.10;15.50;;;;;;;12.19;57.92;101395.19;4980556;28;123383;-72
2021/11/12 13:55:02;;;;;;;29.55;16.10;;;;;;;12.20;57.87;101394.22;5003666;28;124173;-74
2021/11/12 13:57:29;;;;;;;26.88;15.63;;;;;;;12.21;57.94;101380.03;5009568;28;114441;-73
2021/11/12 14:00:09;;;;;;;30.30;16.02;;;;;;;12.21;57.97;101369.41;5005491;28;113295;-72
2021/11/12 14:03:05;;;;;;;26.55;15.05;;;;;;;12.21;57.90;101369.41;5008681;28;123780;-72
2021/11/12 14:05:34;;;;;;;26.88;14.40;;;;;;;12.21;57.79;101373.88;5002941;28;123244;-73
2021/11/12 14:08:13;;;;;;;24.42;14.25;;;;;;;12.19;57.75;101371.28;5001409;28;114451;-72
2021/11/12 14:10:46;;;;;;;26.38;14.15;;;;;;;12.18;57.56;101364.22;4990330;28;113839;-72
2021/11/12 14:13:16;;;;;;;24.85;14.45;;;;;;;12.19;57.84;101368.63;4993174;28;124013;-72
2021/11/12 14:16:10;;;;;;;27.85;15.35;;;;;;;12.20;57.92;101372.97;4983057;28;124178;-72
2021/11/12 14:38:11;;;;;;;26.48;13.50;;;;;;;12.09;57.69;101327.44;5009422;28;124739;-71
2021/11/12 14:43:33;;;;;;;25.73;14.27;;;;;;;12.06;57.71;101322.28;5009456;28;114734;-71
2021/11/12 14:46:23;;;;;;;26.25;13.95;;;;;;;12.04;57.75;101310.88;5009434;28;123967;-72
2021/11/12 14:51:42;;;;;;;29.30;14.35;;;;;;;12.00;57.72;101306.63;4993529;28;114117;-72
2021/11/12 14:54:11;;;;;;;26.27;14.23;;;;;;;11.98;57.81;101308.47;5009684;28;116793;-71
2021/11/12 14:56:47;;;;;;;28.73;14.65;;;;;;;11.96;57.82;101305.03;4995675;28;123744;-71
2021/11/12 14:59:16;;;;;;;30.17;14.05;;;;;;;11.95;57.87;101305.97;4996789;28;125228;-72
2021/11/12 15:01:43;;;;;;;36.00;15.60;;;;;;;11.95;57.97;101308.63;4988102;28;114066;-71
2021/11/12 15:04:10;;;;;;;35.92;15.18;;;;;;;11.94;58.03;101312.19;5000888;28;114740;-72
2021/11/12 15:06:37;;;;;;;29.17;14.57;;;;;;;11.93;57.93;101315.78;4998881;28;124330;-72
2021/11/12 15:11:39;;;;;;;28.42;14.30;;;;;;;11.92;57.71;101303.44;4994805;28;114206;-72
2021/11/12 15:14:16;;;;;;;25.42;14.60;;;;;;;11.91;57.79;101307.88;4997708;28;114510;-72
2021/11/12 15:17:04;;;;;;;29.55;15.15;;;;;;;11.91;57.85;101312.34;4984601;28;122846;-73
2021/11/12 15:19:34;;;;;;;26.77;14.32;;;;;;;11.91;57.95;101296.41;4998195;28;124229;-72
2021/11/12 15:24:48;;;;;;;29.52;14.50;;;;;;;11.88;57.64;101277.00;4994348;28;114052;-71
2021/11/12 15:27:27;;;;;;;28.05;14.38;;;;;;;11.85;57.83;101271.81;4998333;28;124120;-71
2021/11/12 15:30:00;;;;;;;29.65;14.43;;;;;;;11.82;57.88;101271.94;4997279;28;124060;-72
2021/11/12 15:32:31;;;;;;;24.95;14.07;;;;;;;11.80;58.00;101268.50;4998282;28;116402;-71
2021/11/12 15:35:04;;;;;;;25.55;13.80;;;;;;;11.77;57.88;101262.47;5007807;28;115993;-71
2021/11/12 15:40:32;;;;;;;26.40;13.93;;;;;;;11.72;57.77;101252.06;4999070;28;124605;-71
2021/11/12 15:48:16;;;;;;;27.45;13.63;;;;;;;11.64;57.80;101238.25;5001748;28;123961;-71
2021/11/12 15:53:31;;;;;;;31.02;13.65;;;;;;;11.57;58.04;101228.84;5003751;28;113957;-74
2021/11/12 15:56:16;;;;;;;30.70;13.75;;;;;;;11.54;57.85;101223.66;5000250;28;115185;-72
2021/11/12 15:58:55;;;;;;;26.60;14.40;;;;;;;11.52;58.21;101209.59;5001324;28;124818;-71
2021/11/12 16:06:58;;;;;;;25.45;13.95;;;;;;;11.45;58.25;101212.53;5005055;28;114038;-71
2021/11/12 16:25:51;;;;;;;23.40;13.63;;;;;;;11.35;58.56;101203.22;5021833;28;114412;-71
2021/11/12 16:28:22;;;;;;;25.27;13.68;;;;;;;11.35;58.40;101207.66;5013630;28;115066;-71
2021/11/12 16:30:56;;;;;;;26.48;13.63;;;;;;;11.34;58.21;101201.50;5012965;28;123970;-71
2021/11/12 16:33:25;;;;;;;26.45;12.77;;;;;;;11.34;58.66;101200.63;5008210;28;123854;-71
2021/11/12 16:35:56;;;;;;;22.33;12.57;;;;;;;11.33;58.51;101205.06;4995254;28;114477;-71
2021/11/12 16:38:27;;;;;;;22.92;12.50;;;;;;;11.33;58.54;101202.44;5005741;28;113709;-72
2021/11/12 16:41:06;;;;;;;25.55;13.02;;;;;;;11.33;58.42;101199.78;4989393;28;123826;-71
2021/11/12 16:43:39;;;;;;;27.38;13.65;;;;;;;11.33;58.57;101197.13;5010205;28;124829;-71